METAR stanice u blizini

 

LYBE - Beograd / Surčin, Srbija
Ažurirano: 23/02/2018 09:30
Vedro
Vedro
 Pravac vetra I
Vetar: I 24 km/h
Temperatura: 3°C
Osećaj hladnoće: -2°C
Tačka rose: -1°C
Vlažnost: 75%
Pritisak: 1014 hPa
Pregled: Vedro
Vidljivost: greater than 10 km
2018/02/23 08:30 LYBE 230830Z 09013KT CAVOK 03/M01 Q1014 NOSIG
LYBT - Beograd / Batajnica, Srbija
Ažurirano: 23/02/2018 09:30
Partly Cloudy
Partly Cloudy
 Pravac vetra ISI
Vetar: ISI 20 km/h
Temperatura: 3°C
Osećaj hladnoće: -2°C
Tačka rose: -2°C
Vlažnost: 70%
Pritisak: 1015 hPa
Oblaci: Partly Cloudy
Vidljivost: 10 km
Cloud details: Partly Cloudy 1219 m
2018/02/23 08:30 LYBT 230830Z 06011KT 030V090 9999 SCT040 03/M02 Q1015 NOSIG
LYVR - Vršac, Srbija
Ažurirano: 23/02/2018 09:30
Vedro
Vedro
 Pravac vetra varies
Vetar: varies 7 km/h
Temperatura: 5°C
Osećaj hladnoće: 3°C
Tačka rose: -1°C
Vlažnost: 66%
Pritisak: 1016 hPa
Pregled: Vedro
Vidljivost: greater than 10 km
2018/02/23 08:30 LYVR 230830Z VRB04KT CAVOK 05/M01 Q1016 NOSIG
 
LYKV - Lađevci, Srbija
Ažurirano: 23/02/2018 09:30
Mostly Cloudy
Mostly Cloudy
 Pravac vetra JI
Vetar: JI 11 km/h
Temperatura: 4°C
Osećaj hladnoće: 1°C
Tačka rose: 0°C
Vlažnost: 75%
Pritisak: 1013 hPa
Oblaci: Mostly Cloudy
Vidljivost: 10 km
Cloud details: Few Clouds 549 m
Mostly Cloudy 823 m
2018/02/23 08:30 LYKV 230830Z 14006KT 9999 FEW018 BKN027 04/00 Q1013 NOSIG
LYNI - Niš, Srbija
Ažurirano: 23/02/2018 09:30
Mostly Cloudy
Mostly Cloudy
 Pravac vetra SI
Vetar: SI 9 km/h
Temperatura: 5°C
Osećaj hladnoće: 3°C
Tačka rose: -2°C
Vlažnost: 61%
Pritisak: 1014 hPa
Oblaci: Mostly Cloudy
Vidljivost: 10 km
Cloud details: Partly Cloudy 610 m
Mostly Cloudy 1311 m
2018/02/23 08:30 LYNI 230830Z 04005KT 9999 SCT020 BKN043 05/M02 Q1014 NOSIG
BKPR - Priština, Srbija
Ažurirano: 23/02/2018 09:30
Mostly Cloudy
Mostly Cloudy
 Pravac vetra SZ
Vetar: SZ 7 km/h
Temperatura: 4°C
Osećaj hladnoće: 2°C
Tačka rose: 0°C
Vlažnost: 75%
Pritisak: 1011 hPa
Oblaci: Mostly Cloudy
Vidljivost: 10 km
Cloud details: Partly Cloudy 396 m
Mostly Cloudy 1067 m
2018/02/23 08:30 BKPR 230830Z 32004KT 290V350 9999 SCT013 BKN035 04/00 Q1011 NOSIG RMK 17010095
 
LHPP - Pecs / Pogany, Hungary
Ažurirano: 23/02/2018 09:15
Light snow, Oblačno
Light snow, Oblačno
 Pravac vetra ISI
Vetar: ISI 24 km/h
Temperatura: 0°C
Osećaj hladnoće: -6°C
Tačka rose: -1°C
Vlažnost: 93%
Pritisak: 1015 hPa
Pregled: Light Snow
Oblaci: Oblačno
Vidljivost: 6 km
Cloud details: Oblačno 305 m
2018/02/23 08:15 LHPP 230815Z 07013KT 6000 -SN OVC010 M00/M01 Q1015
LHUD - Szeged, Hungary
Ažurirano: 23/02/2018 09:15
Light snow, Oblačno
Light snow, Oblačno
 Pravac vetra SSI
Vetar: SSI 13 km/h
Temperatura: 1°C
Osećaj hladnoće: -3°C
Tačka rose: 0°C
Vlažnost: 93%
Pritisak: 1017 hPa
Pregled: Light Snow
Oblaci: Oblačno
Vidljivost: 6 km
Cloud details: Oblačno 183 m
2018/02/23 08:15 LHUD 230815Z 02007KT 6000 -SN OVC006 01/M00 Q1017
LRTR - Timisoara, Romania
Ažurirano: 23/02/2018 09:30
Vedro
Vedro
 Pravac vetra I
Vetar: I 7 km/h
Temperatura: 5°C
Osećaj hladnoće: 3°C
Tačka rose: 1°C
Vlažnost: 76%
Pritisak: 1015 hPa
Pregled: Vedro
Vidljivost: greater than 10 km
2018/02/23 08:30 LRTR 230830Z 09004KT CAVOK 05/01 Q1015 R11/290095
 
LRCV - Craiova, Romania
Ažurirano: 23/02/2018 09:30
Mist, Oblačno
Mist, Oblačno
 Pravac vetra ISI
Vetar: ISI 19 km/h
Temperatura: -1°C
Osećaj hladnoće: -7°C
Tačka rose: -2°C
Vlažnost: 93%
Pritisak: 1018 hPa
Pregled: Mist
Oblaci: Oblačno
Vidljivost: 4 km
Cloud details: Partly Cloudy 183 m
Oblačno 244 m
2018/02/23 08:30 LRCV 230830Z 07010KT 4000 BR SCT006 OVC008 M01/M02 Q1018 R09/650294
LBSF - Sofia, Bulgaria
Ažurirano: 23/02/2018 09:30
Oblačno
Oblačno
 Pravac vetra IJI
Vetar: IJI 30 km/h
Temperatura: 5°C
Osećaj hladnoće: 0°C
Tačka rose: 2°C
Vlažnost: 81%
Pritisak: 1014 hPa
Oblaci: Oblačno
Vidljivost: 10 km
Cloud details: Few Clouds 457 m
Mostly Cloudy 579 m
Oblačno 701 m
2018/02/23 08:30 LBSF 230830Z 12016KT 9999 FEW015 BKN019 OVC023 05/02 Q1014 NOSIG
LWSK - Skoplje, Makedonija
Ažurirano: 23/02/2018 09:30
Mostly Cloudy
Mostly Cloudy
 Pravac vetra JI
Vetar: JI 17 km/h
Temperatura: 9°C
Osećaj hladnoće: 7°C
Tačka rose: 6°C
Vlažnost: 82%
Pritisak: 1013 hPa
Oblaci: Mostly Cloudy
Vidljivost: 10 km
Cloud details: Few Clouds 488 m
Partly Cloudy 1524 m
Mostly Cloudy 2134 m
2018/02/23 08:30 LWSK 230830Z 14009KT 9999 FEW016 SCT050 BKN070 09/06 Q1013 NOSIG
 
LYPG - Podgorica, Crna Gora
Ažurirano: 23/02/2018 09:30
Mostly Cloudy
Mostly Cloudy
 Pravac vetra varies
Vetar: varies 4 km/h
Temperatura: 9°C
Tačka rose: 7°C
Vlažnost: 87%
Pritisak: 1009 hPa
Oblaci: Mostly Cloudy
Vidljivost: 10 km
Cloud details: Few Clouds 1219 m
Partly Cloudy 1524 m
Mostly Cloudy 2134 m
2018/02/23 08:30 LYPG 230830Z VRB02KT 9999 FEW040 SCT050 BKN070 09/07 Q1009 NOSIG
LQSA - Sarajevo, Bosna i Hercegovina
Ažurirano: 23/02/2018 09:30
Mist, Pretežno oblačno
Mist, Pretežno oblačno
 Pravac vetra varies
Vetar: varies 2 km/h
Temperatura: 3°C
Tačka rose: 3°C
Vlažnost: 100%
Pritisak: 1010 hPa
Pregled: Mist
Oblaci: Mostly Cloudy
Vidljivost: 3 km
Cloud details: Partly Cloudy 152 m
Mostly Cloudy 610 m
2018/02/23 08:30 LQSA 230830Z VRB01KT 2500 BR SCT005 BKN020 03/03 Q1010 NOSIG
LDOS - Osijek, Hrvatksa
Ažurirano: 23/02/2018 09:30
Mostly Cloudy
Mostly Cloudy
 Pravac vetra I
Vetar: I 26 km/h
Temperatura: 2°C
Osećaj hladnoće: -3°C
Tačka rose: 1°C
Vlažnost: 93%
Pritisak: 1014 hPa
Oblaci: Mostly Cloudy
Vidljivost: 8 km
Cloud details: Partly Cloudy 396 m
Mostly Cloudy 914 m
2018/02/23 08:30 LDOS 230830Z 08014KT 8000 SCT013 BKN030 02/01 Q1014 R11/19//95